sensor_id;sensor_type;location;lat;lon;timestamp;P1;durP1;ratioP1;P2;durP2;ratioP2
65665;SDS011;52365;47.464;18.976;2023-09-19T00:00:00;8.75;;;4.60;;
65665;SDS011;52365;47.464;18.976;2023-09-19T00:00:22;8.43;;;4.62;;
65665;SDS011;52365;47.464;18.976;2023-09-19T00:00:48;9.38;;;4.70;;
65665;SDS011;52365;47.464;18.976;2023-09-19T00:01:09;12.23;;;5.00;;
65665;SDS011;52365;47.464;18.976;2023-09-19T00:01:33;8.82;;;4.55;;
65665;SDS011;52365;47.464;18.976;2023-09-19T00:01:54;8.27;;;4.50;;
65665;SDS011;52365;47.464;18.976;2023-09-19T00:02:12;9.20;;;4.45;;
65665;SDS011;52365;47.464;18.976;2023-09-19T00:02:33;8.50;;;4.40;;
65665;SDS011;52365;47.464;18.976;2023-09-19T00:02:55;7.93;;;4.40;;
65665;SDS011;52365;47.464;18.976;2023-09-19T00:03:15;7.95;;;4.40;;
65665;SDS011;52365;47.464;18.976;2023-09-19T00:03:36;7.57;;;4.50;;
65665;SDS011;52365;47.464;18.976;2023-09-19T00:03:53;9.32;;;4.90;;
65665;SDS011;52365;47.464;18.976;2023-09-19T00:04:14;10.05;;;4.90;;
65665;SDS011;52365;47.464;18.976;2023-09-19T00:04:35;11.35;;;5.03;;
65665;SDS011;52365;47.464;18.976;2023-09-19T00:05:00;9.95;;;4.60;;
65665;SDS011;52365;47.464;18.976;2023-09-19T00:05:26;7.85;;;4.60;;
65665;SDS011;52365;47.464;18.976;2023-09-19T00:05:49;7.10;;;4.30;;
65665;SDS011;52365;47.464;18.976;2023-09-19T00:06:11;7.00;;;4.55;;
65665;SDS011;52365;47.464;18.976;2023-09-19T00:06:33;8.02;;;4.62;;
65665;SDS011;52365;47.464;18.976;2023-09-19T00:06:54;8.25;;;4.50;;
65665;SDS011;52365;47.464;18.976;2023-09-19T00:07:16;9.15;;;4.47;;
65665;SDS011;52365;47.464;18.976;2023-09-19T00:07:37;10.70;;;4.93;;
65665;SDS011;52365;47.464;18.976;2023-09-19T00:07:58;9.10;;;4.60;;
65665;SDS011;52365;47.464;18.976;2023-09-19T00:08:19;7.80;;;4.45;;
65665;SDS011;52365;47.464;18.976;2023-09-19T00:08:44;7.90;;;4.93;;
65665;SDS011;52365;47.464;18.976;2023-09-19T00:09:05;8.93;;;5.30;;
65665;SDS011;52365;47.464;18.976;2023-09-19T00:09:31;7.93;;;4.78;;
65665;SDS011;52365;47.464;18.976;2023-09-19T00:09:57;10.35;;;5.43;;
65665;SDS011;52365;47.464;18.976;2023-09-19T00:10:18;8.93;;;5.10;;
65665;SDS011;52365;47.464;18.976;2023-09-19T00:10:39;7.72;;;4.93;;
65665;SDS011;52365;47.464;18.976;2023-09-19T00:11:02;13.55;;;9.57;;
65665;SDS011;52365;47.464;18.976;2023-09-19T00:11:24;27.23;;;20.17;;
65665;SDS011;52365;47.464;18.976;2023-09-19T00:11:46;14.60;;;10.20;;
65665;SDS011;52365;47.464;18.976;2023-09-19T00:12:09;9.60;;;6.70;;
65665;SDS011;52365;47.464;18.976;2023-09-19T00:12:30;9.80;;;5.57;;
65665;SDS011;52365;47.464;18.976;2023-09-19T00:12:54;9.05;;;5.00;;
65665;SDS011;52365;47.464;18.976;2023-09-19T00:13:16;9.00;;;4.65;;
65665;SDS011;52365;47.464;18.976;2023-09-19T00:13:37;8.73;;;4.50;;
65665;SDS011;52365;47.464;18.976;2023-09-19T00:13:57;7.43;;;4.43;;
65665;SDS011;52365;47.464;18.976;2023-09-19T00:14:24;7.12;;;4.55;;
65665;SDS011;52365;47.464;18.976;2023-09-19T00:14:45;7.30;;;4.50;;
65665;SDS011;52365;47.464;18.976;2023-09-19T00:15:07;6.93;;;4.37;;
65665;SDS011;52365;47.464;18.976;2023-09-19T00:15:28;7.65;;;5.05;;
65665;SDS011;52365;47.464;18.976;2023-09-19T00:15:49;8.68;;;4.60;;
65665;SDS011;52365;47.464;18.976;2023-09-19T00:16:11;10.85;;;4.53;;
65665;SDS011;52365;47.464;18.976;2023-09-19T00:16:33;7.47;;;4.53;;
65665;SDS011;52365;47.464;18.976;2023-09-19T00:16:54;8.98;;;4.70;;
65665;SDS011;52365;47.464;18.976;2023-09-19T00:17:10;7.57;;;4.30;;
65665;SDS011;52365;47.464;18.976;2023-09-19T00:17:31;6.35;;;4.47;;
65665;SDS011;52365;47.464;18.976;2023-09-19T00:17:52;6.30;;;4.57;;
65665;SDS011;52365;47.464;18.976;2023-09-19T00:18:08;8.93;;;4.68;;
65665;SDS011;52365;47.464;18.976;2023-09-19T00:18:29;8.68;;;4.60;;
65665;SDS011;52365;47.464;18.976;2023-09-19T00:18:53;8.82;;;4.60;;
65665;SDS011;52365;47.464;18.976;2023-09-19T00:19:14;11.00;;;5.00;;
65665;SDS011;52365;47.464;18.976;2023-09-19T00:19:37;10.48;;;5.00;;
65665;SDS011;52365;47.464;18.976;2023-09-19T00:19:58;9.88;;;4.70;;
65665;SDS011;52365;47.464;18.976;2023-09-19T00:20:19;12.02;;;4.65;;
65665;SDS011;52365;47.464;18.976;2023-09-19T00:20:42;11.15;;;4.68;;
65665;SDS011;52365;47.464;18.976;2023-09-19T00:21:03;8.02;;;4.70;;
65665;SDS011;52365;47.464;18.976;2023-09-19T00:21:25;10.90;;;4.87;;
65665;SDS011;52365;47.464;18.976;2023-09-19T00:21:47;10.02;;;4.62;;
65665;SDS011;52365;47.464;18.976;2023-09-19T00:22:08;11.27;;;4.57;;
65665;SDS011;52365;47.464;18.976;2023-09-19T00:22:29;9.35;;;4.70;;
65665;SDS011;52365;47.464;18.976;2023-09-19T00:22:50;8.45;;;4.65;;
65665;SDS011;52365;47.464;18.976;2023-09-19T00:23:12;8.85;;;4.95;;
65665;SDS011;52365;47.464;18.976;2023-09-19T00:23:34;7.87;;;5.10;;
65665;SDS011;52365;47.464;18.976;2023-09-19T00:23:55;9.48;;;4.90;;
65665;SDS011;52365;47.464;18.976;2023-09-19T00:24:16;8.45;;;4.85;;
65665;SDS011;52365;47.464;18.976;2023-09-19T00:24:38;8.82;;;4.72;;
65665;SDS011;52365;47.464;18.976;2023-09-19T00:24:54;8.00;;;4.75;;
65665;SDS011;52365;47.464;18.976;2023-09-19T00:25:15;8.60;;;4.87;;
65665;SDS011;52365;47.464;18.976;2023-09-19T00:25:36;9.93;;;4.75;;
65665;SDS011;52365;47.464;18.976;2023-09-19T00:25:59;13.23;;;5.10;;
65665;SDS011;52365;47.464;18.976;2023-09-19T00:26:21;11.05;;;4.72;;
65665;SDS011;52365;47.464;18.976;2023-09-19T00:26:42;6.93;;;4.35;;
65665;SDS011;52365;47.464;18.976;2023-09-19T00:27:04;7.07;;;4.80;;
65665;SDS011;52365;47.464;18.976;2023-09-19T00:27:26;9.48;;;4.80;;
65665;SDS011;52365;47.464;18.976;2023-09-19T00:27:48;8.00;;;4.70;;
65665;SDS011;52365;47.464;18.976;2023-09-19T00:28:11;9.82;;;4.70;;
65665;SDS011;52365;47.464;18.976;2023-09-19T00:28:33;9.48;;;4.90;;
65665;SDS011;52365;47.464;18.976;2023-09-19T00:28:54;10.00;;;4.90;;
65665;SDS011;52365;47.464;18.976;2023-09-19T00:29:16;10.70;;;4.82;;
65665;SDS011;52365;47.464;18.976;2023-09-19T00:29:37;8.52;;;4.60;;
65665;SDS011;52365;47.464;18.976;2023-09-19T00:29:58;7.97;;;4.65;;
65665;SDS011;52365;47.464;18.976;2023-09-19T00:30:19;9.55;;;4.50;;
65665;SDS011;52365;47.464;18.976;2023-09-19T00:30:45;10.50;;;4.78;;
65665;SDS011;52365;47.464;18.976;2023-09-19T00:31:10;9.18;;;4.53;;
65665;SDS011;52365;47.464;18.976;2023-09-19T00:31:27;8.68;;;4.70;;
65665;SDS011;52365;47.464;18.976;2023-09-19T00:31:50;8.98;;;4.72;;
65665;SDS011;52365;47.464;18.976;2023-09-19T00:32:06;8.88;;;4.78;;
65665;SDS011;52365;47.464;18.976;2023-09-19T00:32:23;6.68;;;4.72;;
65665;SDS011;52365;47.464;18.976;2023-09-19T00:32:44;10.02;;;4.95;;
65665;SDS011;52365;47.464;18.976;2023-09-19T00:33:07;8.23;;;4.80;;
65665;SDS011;52365;47.464;18.976;2023-09-19T00:33:28;7.93;;;4.60;;
65665;SDS011;52365;47.464;18.976;2023-09-19T00:33:50;9.13;;;4.78;;
65665;SDS011;52365;47.464;18.976;2023-09-19T00:34:12;8.73;;;4.95;;
65665;SDS011;52365;47.464;18.976;2023-09-19T00:34:33;8.50;;;4.50;;
65665;SDS011;52365;47.464;18.976;2023-09-19T00:34:55;7.43;;;4.50;;
65665;SDS011;52365;47.464;18.976;2023-09-19T00:35:16;8.30;;;4.60;;
65665;SDS011;52365;47.464;18.976;2023-09-19T00:35:37;9.25;;;4.60;;
65665;SDS011;52365;47.464;18.976;2023-09-19T00:35:58;9.70;;;4.72;;
65665;SDS011;52365;47.464;18.976;2023-09-19T00:36:20;7.87;;;4.57;;
65665;SDS011;52365;47.464;18.976;2023-09-19T00:36:41;8.25;;;4.60;;
65665;SDS011;52365;47.464;18.976;2023-09-19T00:37:03;8.68;;;4.53;;
65665;SDS011;52365;47.464;18.976;2023-09-19T00:37:24;7.90;;;4.80;;
65665;SDS011;52365;47.464;18.976;2023-09-19T00:37:45;8.80;;;4.87;;
65665;SDS011;52365;47.464;18.976;2023-09-19T00:38:06;8.80;;;4.70;;
65665;SDS011;52365;47.464;18.976;2023-09-19T00:38:27;10.65;;;4.93;;
65665;SDS011;52365;47.464;18.976;2023-09-19T00:38:48;9.00;;;4.90;;
65665;SDS011;52365;47.464;18.976;2023-09-19T00:39:05;9.15;;;4.93;;
65665;SDS011;52365;47.464;18.976;2023-09-19T00:39:26;8.50;;;4.70;;
65665;SDS011;52365;47.464;18.976;2023-09-19T00:39:51;6.87;;;4.72;;
65665;SDS011;52365;47.464;18.976;2023-09-19T00:40:12;7.40;;;4.97;;
65665;SDS011;52365;47.464;18.976;2023-09-19T00:40:35;7.75;;;4.80;;
65665;SDS011;52365;47.464;18.976;2023-09-19T00:40:57;8.07;;;5.00;;
65665;SDS011;52365;47.464;18.976;2023-09-19T00:41:20;8.73;;;5.10;;
65665;SDS011;52365;47.464;18.976;2023-09-19T00:41:42;9.35;;;4.70;;
65665;SDS011;52365;47.464;18.976;2023-09-19T00:42:05;6.70;;;4.80;;
65665;SDS011;52365;47.464;18.976;2023-09-19T00:42:27;6.82;;;4.70;;
65665;SDS011;52365;47.464;18.976;2023-09-19T00:42:48;9.68;;;4.75;;
65665;SDS011;52365;47.464;18.976;2023-09-19T00:43:10;8.57;;;4.53;;
65665;SDS011;52365;47.464;18.976;2023-09-19T00:43:31;7.53;;;4.50;;
65665;SDS011;52365;47.464;18.976;2023-09-19T00:43:55;7.37;;;4.53;;
65665;SDS011;52365;47.464;18.976;2023-09-19T00:44:16;8.45;;;5.37;;
65665;SDS011;52365;47.464;18.976;2023-09-19T00:44:38;24.37;;;18.85;;
65665;SDS011;52365;47.464;18.976;2023-09-19T00:45:00;27.62;;;22.30;;
65665;SDS011;52365;47.464;18.976;2023-09-19T00:45:23;28.08;;;19.27;;
65665;SDS011;52365;47.464;18.976;2023-09-19T00:45:43;30.25;;;22.08;;
65665;SDS011;52365;47.464;18.976;2023-09-19T00:46:01;20.52;;;14.70;;
65665;SDS011;52365;47.464;18.976;2023-09-19T00:46:25;14.85;;;9.55;;
65665;SDS011;52365;47.464;18.976;2023-09-19T00:46:46;14.55;;;9.57;;
65665;SDS011;52365;47.464;18.976;2023-09-19T00:47:09;30.10;;;21.35;;
65665;SDS011;52365;47.464;18.976;2023-09-19T00:47:36;27.75;;;20.20;;
65665;SDS011;52365;47.464;18.976;2023-09-19T00:47:57;29.08;;;19.85;;
65665;SDS011;52365;47.464;18.976;2023-09-19T00:48:19;19.83;;;13.65;;
65665;SDS011;52365;47.464;18.976;2023-09-19T00:48:41;10.75;;;7.18;;
65665;SDS011;52365;47.464;18.976;2023-09-19T00:49:04;12.20;;;7.03;;
65665;SDS011;52365;47.464;18.976;2023-09-19T00:49:25;9.55;;;6.15;;
65665;SDS011;52365;47.464;18.976;2023-09-19T00:49:46;10.88;;;5.90;;
65665;SDS011;52365;47.464;18.976;2023-09-19T00:50:08;8.55;;;5.20;;
65665;SDS011;52365;47.464;18.976;2023-09-19T00:50:31;10.18;;;5.40;;
65665;SDS011;52365;47.464;18.976;2023-09-19T00:50:52;9.32;;;4.78;;
65665;SDS011;52365;47.464;18.976;2023-09-19T00:51:14;11.10;;;5.10;;
65665;SDS011;52365;47.464;18.976;2023-09-19T00:51:39;10.77;;;5.15;;
65665;SDS011;52365;47.464;18.976;2023-09-19T00:52:06;9.48;;;5.00;;
65665;SDS011;52365;47.464;18.976;2023-09-19T00:52:27;7.40;;;5.12;;
65665;SDS011;52365;47.464;18.976;2023-09-19T00:52:49;8.65;;;5.32;;
65665;SDS011;52365;47.464;18.976;2023-09-19T00:53:09;9.77;;;5.30;;
65665;SDS011;52365;47.464;18.976;2023-09-19T00:53:34;9.73;;;4.90;;
65665;SDS011;52365;47.464;18.976;2023-09-19T00:53:55;7.90;;;5.05;;
65665;SDS011;52365;47.464;18.976;2023-09-19T00:54:17;9.50;;;5.00;;
65665;SDS011;52365;47.464;18.976;2023-09-19T00:54:39;9.93;;;5.15;;
65665;SDS011;52365;47.464;18.976;2023-09-19T00:55:00;8.50;;;4.87;;
65665;SDS011;52365;47.464;18.976;2023-09-19T00:55:23;8.35;;;5.03;;
65665;SDS011;52365;47.464;18.976;2023-09-19T00:55:45;8.25;;;4.70;;
65665;SDS011;52365;47.464;18.976;2023-09-19T00:56:07;9.27;;;5.03;;
65665;SDS011;52365;47.464;18.976;2023-09-19T00:56:28;8.85;;;5.07;;
65665;SDS011;52365;47.464;18.976;2023-09-19T00:56:49;9.25;;;5.00;;
65665;SDS011;52365;47.464;18.976;2023-09-19T00:57:11;8.10;;;4.90;;
65665;SDS011;52365;47.464;18.976;2023-09-19T00:57:33;8.03;;;5.10;;
65665;SDS011;52365;47.464;18.976;2023-09-19T00:57:55;7.93;;;4.90;;
65665;SDS011;52365;47.464;18.976;2023-09-19T00:58:17;8.13;;;4.90;;
65665;SDS011;52365;47.464;18.976;2023-09-19T00:58:39;8.93;;;5.18;;
65665;SDS011;52365;47.464;18.976;2023-09-19T00:59:00;10.07;;;5.00;;
65665;SDS011;52365;47.464;18.976;2023-09-19T00:59:21;8.55;;;5.00;;
65665;SDS011;52365;47.464;18.976;2023-09-19T00:59:43;8.20;;;4.90;;
65665;SDS011;52365;47.464;18.976;2023-09-19T01:00:05;8.52;;;5.25;;
65665;SDS011;52365;47.464;18.976;2023-09-19T01:00:28;11.45;;;5.05;;
65665;SDS011;52365;47.464;18.976;2023-09-19T01:00:50;8.35;;;5.10;;
65665;SDS011;52365;47.464;18.976;2023-09-19T01:01:13;9.85;;;4.90;;
65665;SDS011;52365;47.464;18.976;2023-09-19T01:01:35;11.68;;;5.60;;
65665;SDS011;52365;47.464;18.976;2023-09-19T01:01:59;9.40;;;5.22;;
65665;SDS011;52365;47.464;18.976;2023-09-19T01:02:21;7.53;;;5.07;;
65665;SDS011;52365;47.464;18.976;2023-09-19T01:02:42;9.32;;;4.90;;
65665;SDS011;52365;47.464;18.976;2023-09-19T01:03:04;10.20;;;5.28;;
65665;SDS011;52365;47.464;18.976;2023-09-19T01:03:27;8.88;;;5.18;;
65665;SDS011;52365;47.464;18.976;2023-09-19T01:03:48;8.13;;;4.80;;
65665;SDS011;52365;47.464;18.976;2023-09-19T01:04:10;9.98;;;4.97;;
65665;SDS011;52365;47.464;18.976;2023-09-19T01:04:31;10.63;;;4.85;;
65665;SDS011;52365;47.464;18.976;2023-09-19T01:04:54;9.10;;;4.87;;
65665;SDS011;52365;47.464;18.976;2023-09-19T01:05:15;8.95;;;5.00;;
65665;SDS011;52365;47.464;18.976;2023-09-19T01:05:37;11.07;;;5.47;;
65665;SDS011;52365;47.464;18.976;2023-09-19T01:05:59;11.32;;;5.47;;
65665;SDS011;52365;47.464;18.976;2023-09-19T01:06:21;9.45;;;5.30;;
65665;SDS011;52365;47.464;18.976;2023-09-19T01:06:42;9.25;;;5.35;;
65665;SDS011;52365;47.464;18.976;2023-09-19T01:07:06;10.80;;;5.37;;
65665;SDS011;52365;47.464;18.976;2023-09-19T01:07:28;7.45;;;5.00;;
65665;SDS011;52365;47.464;18.976;2023-09-19T01:07:51;8.98;;;4.90;;
65665;SDS011;52365;47.464;18.976;2023-09-19T01:08:13;11.98;;;5.28;;
65665;SDS011;52365;47.464;18.976;2023-09-19T01:08:35;9.35;;;5.22;;
65665;SDS011;52365;47.464;18.976;2023-09-19T01:08:57;8.30;;;4.90;;
65665;SDS011;52365;47.464;18.976;2023-09-19T01:09:18;9.18;;;5.20;;
65665;SDS011;52365;47.464;18.976;2023-09-19T01:09:40;7.77;;;5.13;;
65665;SDS011;52365;47.464;18.976;2023-09-19T01:10:03;7.32;;;5.18;;
65665;SDS011;52365;47.464;18.976;2023-09-19T01:10:26;9.48;;;5.53;;
65665;SDS011;52365;47.464;18.976;2023-09-19T01:10:55;9.27;;;5.65;;
65665;SDS011;52365;47.464;18.976;2023-09-19T01:11:40;8.85;;;5.28;;
65665;SDS011;52365;47.464;18.976;2023-09-19T01:12:06;8.95;;;5.40;;
65665;SDS011;52365;47.464;18.976;2023-09-19T01:13:01;9.40;;;5.15;;
65665;SDS011;52365;47.464;18.976;2023-09-19T01:13:29;9.65;;;5.30;;
65665;SDS011;52365;47.464;18.976;2023-09-19T01:14:44;9.45;;;5.20;;
65665;SDS011;52365;47.464;18.976;2023-09-19T01:16:06;11.30;;;5.45;;
65665;SDS011;52365;47.464;18.976;2023-09-19T01:16:44;10.48;;;5.50;;
65665;SDS011;52365;47.464;18.976;2023-09-19T01:17:17;8.38;;;5.35;;
65665;SDS011;52365;47.464;18.976;2023-09-19T01:22:29;9.15;;;5.65;;
65665;SDS011;52365;47.464;18.976;2023-09-19T01:28:02;9.05;;;5.30;;
65665;SDS011;52365;47.464;18.976;2023-09-19T01:29:23;9.68;;;5.40;;
65665;SDS011;52365;47.464;18.976;2023-09-19T01:30:14;10.70;;;5.50;;
65665;SDS011;52365;47.464;18.976;2023-09-19T01:30:39;12.18;;;5.50;;
65665;SDS011;52365;47.464;18.976;2023-09-19T01:31:04;10.07;;;5.95;;
65665;SDS011;52365;47.464;18.976;2023-09-19T01:31:25;12.65;;;5.70;;
65665;SDS011;52365;47.464;18.976;2023-09-19T01:31:52;8.45;;;6.00;;
65665;SDS011;52365;47.464;18.976;2023-09-19T01:32:18;9.45;;;5.57;;
65665;SDS011;52365;47.464;18.976;2023-09-19T01:32:42;10.52;;;5.62;;
65665;SDS011;52365;47.464;18.976;2023-09-19T01:33:04;9.55;;;5.45;;
65665;SDS011;52365;47.464;18.976;2023-09-19T01:33:26;7.97;;;5.32;;
65665;SDS011;52365;47.464;18.976;2023-09-19T01:33:54;7.95;;;5.80;;
65665;SDS011;52365;47.464;18.976;2023-09-19T01:34:15;8.95;;;5.47;;
65665;SDS011;52365;47.464;18.976;2023-09-19T01:34:49;8.82;;;5.37;;
65665;SDS011;52365;47.464;18.976;2023-09-19T01:35:24;10.97;;;5.60;;
65665;SDS011;52365;47.464;18.976;2023-09-19T01:35:40;10.02;;;5.75;;
65665;SDS011;52365;47.464;18.976;2023-09-19T01:36:02;8.50;;;5.72;;
65665;SDS011;52365;47.464;18.976;2023-09-19T01:36:24;7.93;;;5.47;;
65665;SDS011;52365;47.464;18.976;2023-09-19T01:36:45;8.20;;;5.50;;
65665;SDS011;52365;47.464;18.976;2023-09-19T01:37:06;10.55;;;5.60;;
65665;SDS011;52365;47.464;18.976;2023-09-19T01:37:27;11.82;;;5.78;;
65665;SDS011;52365;47.464;18.976;2023-09-19T01:37:48;9.50;;;6.00;;
65665;SDS011;52365;47.464;18.976;2023-09-19T01:38:09;12.70;;;5.57;;
65665;SDS011;52365;47.464;18.976;2023-09-19T01:38:32;13.77;;;5.65;;
65665;SDS011;52365;47.464;18.976;2023-09-19T01:38:53;11.18;;;5.70;;
65665;SDS011;52365;47.464;18.976;2023-09-19T01:39:15;9.25;;;5.60;;
65665;SDS011;52365;47.464;18.976;2023-09-19T01:39:36;10.02;;;5.70;;
65665;SDS011;52365;47.464;18.976;2023-09-19T01:40:02;11.35;;;5.47;;
65665;SDS011;52365;47.464;18.976;2023-09-19T01:40:31;11.02;;;5.68;;
65665;SDS011;52365;47.464;18.976;2023-09-19T01:40:57;8.68;;;5.47;;
65665;SDS011;52365;47.464;18.976;2023-09-19T01:41:26;9.98;;;5.62;;
65665;SDS011;52365;47.464;18.976;2023-09-19T01:42:32;11.10;;;5.75;;
65665;SDS011;52365;47.464;18.976;2023-09-19T01:43:17;11.02;;;5.95;;
65665;SDS011;52365;47.464;18.976;2023-09-19T01:43:44;7.32;;;5.32;;
65665;SDS011;52365;47.464;18.976;2023-09-19T01:44:06;10.20;;;5.70;;
65665;SDS011;52365;47.464;18.976;2023-09-19T01:44:40;9.38;;;5.70;;
65665;SDS011;52365;47.464;18.976;2023-09-19T01:46:33;9.07;;;5.85;;
65665;SDS011;52365;47.464;18.976;2023-09-19T01:46:57;9.18;;;5.80;;
65665;SDS011;52365;47.464;18.976;2023-09-19T01:47:42;9.52;;;6.18;;
65665;SDS011;52365;47.464;18.976;2023-09-19T01:49:36;10.07;;;6.05;;
65665;SDS011;52365;47.464;18.976;2023-09-19T01:50:12;9.80;;;6.28;;
65665;SDS011;52365;47.464;18.976;2023-09-19T01:51:08;9.25;;;5.78;;
65665;SDS011;52365;47.464;18.976;2023-09-19T01:51:53;10.77;;;6.25;;
65665;SDS011;52365;47.464;18.976;2023-09-19T01:52:23;9.02;;;6.40;;
65665;SDS011;52365;47.464;18.976;2023-09-19T01:52:57;10.30;;;6.37;;
65665;SDS011;52365;47.464;18.976;2023-09-19T01:53:26;10.75;;;6.05;;
65665;SDS011;52365;47.464;18.976;2023-09-19T01:54:00;8.77;;;6.00;;
65665;SDS011;52365;47.464;18.976;2023-09-19T01:54:34;10.30;;;6.45;;
65665;SDS011;52365;47.464;18.976;2023-09-19T01:55:03;8.02;;;5.93;;
65665;SDS011;52365;47.464;18.976;2023-09-19T01:55:30;9.63;;;6.20;;
65665;SDS011;52365;47.464;18.976;2023-09-19T01:55:57;9.40;;;6.15;;
65665;SDS011;52365;47.464;18.976;2023-09-19T01:56:21;9.90;;;6.30;;
65665;SDS011;52365;47.464;18.976;2023-09-19T01:56:57;12.60;;;6.43;;
65665;SDS011;52365;47.464;18.976;2023-09-19T01:57:40;10.93;;;6.40;;
65665;SDS011;52365;47.464;18.976;2023-09-19T01:58:07;9.00;;;6.20;;
65665;SDS011;52365;47.464;18.976;2023-09-19T01:58:32;10.10;;;6.18;;
65665;SDS011;52365;47.464;18.976;2023-09-19T01:58:56;11.30;;;6.68;;
65665;SDS011;52365;47.464;18.976;2023-09-19T01:59:25;11.57;;;6.35;;
65665;SDS011;52365;47.464;18.976;2023-09-19T01:59:57;10.20;;;6.33;;
65665;SDS011;52365;47.464;18.976;2023-09-19T02:00:21;8.70;;;6.32;;
65665;SDS011;52365;47.464;18.976;2023-09-19T02:00:44;10.88;;;6.30;;
65665;SDS011;52365;47.464;18.976;2023-09-19T02:01:08;12.32;;;6.43;;
65665;SDS011;52365;47.464;18.976;2023-09-19T02:01:36;10.27;;;6.35;;
65665;SDS011;52365;47.464;18.976;2023-09-19T02:01:58;9.95;;;6.50;;
65665;SDS011;52365;47.464;18.976;2023-09-19T02:02:21;9.93;;;6.22;;
65665;SDS011;52365;47.464;18.976;2023-09-19T02:02:45;11.02;;;6.55;;
65665;SDS011;52365;47.464;18.976;2023-09-19T02:03:08;10.02;;;6.40;;
65665;SDS011;52365;47.464;18.976;2023-09-19T02:03:30;8.57;;;6.30;;
65665;SDS011;52365;47.464;18.976;2023-09-19T02:03:47;9.40;;;6.45;;
65665;SDS011;52365;47.464;18.976;2023-09-19T02:04:05;10.25;;;6.55;;
65665;SDS011;52365;47.464;18.976;2023-09-19T02:04:27;9.98;;;6.22;;
65665;SDS011;52365;47.464;18.976;2023-09-19T02:04:44;9.93;;;6.25;;
65665;SDS011;52365;47.464;18.976;2023-09-19T02:05:00;9.48;;;6.12;;
65665;SDS011;52365;47.464;18.976;2023-09-19T02:05:24;10.15;;;6.45;;
65665;SDS011;52365;47.464;18.976;2023-09-19T02:05:51;10.27;;;6.37;;
65665;SDS011;52365;47.464;18.976;2023-09-19T02:06:14;11.15;;;6.80;;
65665;SDS011;52365;47.464;18.976;2023-09-19T02:06:39;10.50;;;6.72;;
65665;SDS011;52365;47.464;18.976;2023-09-19T02:07:01;9.60;;;6.32;;
65665;SDS011;52365;47.464;18.976;2023-09-19T02:07:23;10.38;;;6.00;;
65665;SDS011;52365;47.464;18.976;2023-09-19T02:07:44;12.18;;;6.35;;
65665;SDS011;52365;47.464;18.976;2023-09-19T02:08:05;10.65;;;6.87;;
65665;SDS011;52365;47.464;18.976;2023-09-19T02:08:26;11.23;;;6.80;;
65665;SDS011;52365;47.464;18.976;2023-09-19T02:08:47;11.70;;;6.68;;
65665;SDS011;52365;47.464;18.976;2023-09-19T02:09:09;10.80;;;6.68;;
65665;SDS011;52365;47.464;18.976;2023-09-19T02:09:25;11.35;;;6.85;;
65665;SDS011;52365;47.464;18.976;2023-09-19T02:09:46;10.60;;;6.78;;
65665;SDS011;52365;47.464;18.976;2023-09-19T02:10:04;12.48;;;7.10;;
65665;SDS011;52365;47.464;18.976;2023-09-19T02:10:26;10.25;;;6.87;;
65665;SDS011;52365;47.464;18.976;2023-09-19T02:10:47;9.73;;;6.72;;
65665;SDS011;52365;47.464;18.976;2023-09-19T02:11:09;12.77;;;6.68;;
65665;SDS011;52365;47.464;18.976;2023-09-19T02:11:31;9.68;;;6.50;;
65665;SDS011;52365;47.464;18.976;2023-09-19T02:11:52;9.68;;;6.30;;
65665;SDS011;52365;47.464;18.976;2023-09-19T02:12:13;11.57;;;7.05;;
65665;SDS011;52365;47.464;18.976;2023-09-19T02:12:36;12.32;;;6.97;;
65665;SDS011;52365;47.464;18.976;2023-09-19T02:12:57;11.85;;;6.70;;
65665;SDS011;52365;47.464;18.976;2023-09-19T02:13:19;10.75;;;6.53;;
65665;SDS011;52365;47.464;18.976;2023-09-19T02:13:44;10.60;;;6.32;;
65665;SDS011;52365;47.464;18.976;2023-09-19T02:14:06;11.15;;;6.40;;
65665;SDS011;52365;47.464;18.976;2023-09-19T02:14:29;12.10;;;6.65;;
65665;SDS011;52365;47.464;18.976;2023-09-19T02:14:50;14.27;;;7.18;;
65665;SDS011;52365;47.464;18.976;2023-09-19T02:15:11;13.15;;;6.72;;
65665;SDS011;52365;47.464;18.976;2023-09-19T02:15:33;9.88;;;6.57;;
65665;SDS011;52365;47.464;18.976;2023-09-19T02:15:55;7.82;;;6.40;;
65665;SDS011;52365;47.464;18.976;2023-09-19T02:16:11;9.75;;;6.43;;
65665;SDS011;52365;47.464;18.976;2023-09-19T02:16:33;12.70;;;7.10;;
65665;SDS011;52365;47.464;18.976;2023-09-19T02:16:54;9.50;;;6.93;;
65665;SDS011;52365;47.464;18.976;2023-09-19T02:17:15;8.77;;;6.82;;
65665;SDS011;52365;47.464;18.976;2023-09-19T02:17:36;10.13;;;6.70;;
65665;SDS011;52365;47.464;18.976;2023-09-19T02:17:58;10.73;;;6.53;;
65665;SDS011;52365;47.464;18.976;2023-09-19T02:18:20;10.57;;;6.62;;
65665;SDS011;52365;47.464;18.976;2023-09-19T02:18:41;12.45;;;7.07;;
65665;SDS011;52365;47.464;18.976;2023-09-19T02:19:02;11.23;;;6.80;;
65665;SDS011;52365;47.464;18.976;2023-09-19T02:19:26;11.50;;;6.90;;
65665;SDS011;52365;47.464;18.976;2023-09-19T02:19:48;13.18;;;7.00;;
65665;SDS011;52365;47.464;18.976;2023-09-19T02:20:10;15.38;;;7.15;;
65665;SDS011;52365;47.464;18.976;2023-09-19T02:20:35;13.15;;;6.68;;
65665;SDS011;52365;47.464;18.976;2023-09-19T02:20:56;10.25;;;6.50;;
65665;SDS011;52365;47.464;18.976;2023-09-19T02:21:19;9.93;;;6.20;;
65665;SDS011;52365;47.464;18.976;2023-09-19T02:21:42;11.95;;;6.82;;
65665;SDS011;52365;47.464;18.976;2023-09-19T02:22:03;12.13;;;6.68;;
65665;SDS011;52365;47.464;18.976;2023-09-19T02:22:28;10.98;;;6.85;;
65665;SDS011;52365;47.464;18.976;2023-09-19T02:22:50;9.68;;;6.65;;
65665;SDS011;52365;47.464;18.976;2023-09-19T02:23:11;9.65;;;6.75;;
65665;SDS011;52365;47.464;18.976;2023-09-19T02:23:33;10.45;;;6.72;;
65665;SDS011;52365;47.464;18.976;2023-09-19T02:23:54;12.63;;;7.10;;
65665;SDS011;52365;47.464;18.976;2023-09-19T02:24:15;11.50;;;7.00;;
65665;SDS011;52365;47.464;18.976;2023-09-19T02:24:37;9.10;;;6.62;;
65665;SDS011;52365;47.464;18.976;2023-09-19T02:24:58;10.65;;;6.60;;
65665;SDS011;52365;47.464;18.976;2023-09-19T02:25:21;10.75;;;6.82;;
65665;SDS011;52365;47.464;18.976;2023-09-19T02:25:42;10.95;;;6.65;;
65665;SDS011;52365;47.464;18.976;2023-09-19T02:26:04;10.27;;;7.07;;
65665;SDS011;52365;47.464;18.976;2023-09-19T02:26:26;10.93;;;7.07;;
65665;SDS011;52365;47.464;18.976;2023-09-19T02:26:48;11.85;;;7.20;;
65665;SDS011;52365;47.464;18.976;2023-09-19T02:27:04;11.25;;;7.22;;
65665;SDS011;52365;47.464;18.976;2023-09-19T02:27:25;10.70;;;6.93;;
65665;SDS011;52365;47.464;18.976;2023-09-19T02:27:46;15.10;;;7.10;;
65665;SDS011;52365;47.464;18.976;2023-09-19T02:28:07;12.07;;;7.12;;
65665;SDS011;52365;47.464;18.976;2023-09-19T02:28:29;12.15;;;7.37;;
65665;SDS011;52365;47.464;18.976;2023-09-19T02:28:52;10.53;;;7.13;;
65665;SDS011;52365;47.464;18.976;2023-09-19T02:29:08;9.88;;;7.15;;
65665;SDS011;52365;47.464;18.976;2023-09-19T02:29:33;11.48;;;7.25;;
65665;SDS011;52365;47.464;18.976;2023-09-19T02:29:55;9.88;;;7.12;;
65665;SDS011;52365;47.464;18.976;2023-09-19T02:30:16;10.10;;;7.18;;
65665;SDS011;52365;47.464;18.976;2023-09-19T02:30:41;10.43;;;7.10;;
65665;SDS011;52365;47.464;18.976;2023-09-19T02:31:02;11.93;;;6.75;;
65665;SDS011;52365;47.464;18.976;2023-09-19T02:31:25;11.82;;;6.80;;
65665;SDS011;52365;47.464;18.976;2023-09-19T02:31:44;11.90;;;7.18;;
65665;SDS011;52365;47.464;18.976;2023-09-19T02:32:06;10.60;;;6.82;;
65665;SDS011;52365;47.464;18.976;2023-09-19T02:32:27;10.70;;;7.00;;